sensor_id;sensor_type;location;lat;lon;timestamp;P1;durP1;ratioP1;P2;durP2;ratioP2
20076;SDS011;12348;42.710;23.378;2023-04-03T00:00:29;4.63;;;3.53;;
20076;SDS011;12348;42.710;23.378;2023-04-03T00:02:56;6.17;;;3.23;;
20076;SDS011;12348;42.710;23.378;2023-04-03T00:05:23;6.53;;;3.33;;
20076;SDS011;12348;42.710;23.378;2023-04-03T00:07:50;8.40;;;3.37;;
20076;SDS011;12348;42.710;23.378;2023-04-03T00:10:19;11.10;;;5.17;;
20076;SDS011;12348;42.710;23.378;2023-04-03T00:12:46;6.47;;;4.93;;
20076;SDS011;12348;42.710;23.378;2023-04-03T00:15:12;8.20;;;4.70;;
20076;SDS011;12348;42.710;23.378;2023-04-03T00:17:39;7.33;;;5.27;;
20076;SDS011;12348;42.710;23.378;2023-04-03T00:20:06;9.83;;;6.57;;
20076;SDS011;12348;42.710;23.378;2023-04-03T00:22:34;18.67;;;9.17;;
20076;SDS011;12348;42.710;23.378;2023-04-03T00:25:01;15.57;;;9.30;;
20076;SDS011;12348;42.710;23.378;2023-04-03T00:27:29;14.70;;;8.80;;
20076;SDS011;12348;42.710;23.378;2023-04-03T00:29:56;15.93;;;9.20;;
20076;SDS011;12348;42.710;23.378;2023-04-03T00:32:23;11.97;;;7.67;;
20076;SDS011;12348;42.710;23.378;2023-04-03T00:34:49;15.73;;;9.13;;
20076;SDS011;12348;42.710;23.378;2023-04-03T00:37:16;25.63;;;10.47;;
20076;SDS011;12348;42.710;23.378;2023-04-03T00:39:43;11.87;;;7.50;;
20076;SDS011;12348;42.710;23.378;2023-04-03T00:42:10;13.77;;;6.80;;
20076;SDS011;12348;42.710;23.378;2023-04-03T00:47:42;12.33;;;4.80;;
20076;SDS011;12348;42.710;23.378;2023-04-03T00:50:10;10.30;;;5.80;;
20076;SDS011;12348;42.710;23.378;2023-04-03T00:52:37;9.17;;;5.93;;
20076;SDS011;12348;42.710;23.378;2023-04-03T00:55:05;10.00;;;5.77;;
20076;SDS011;12348;42.710;23.378;2023-04-03T00:57:36;9.77;;;5.03;;
20076;SDS011;12348;42.710;23.378;2023-04-03T01:00:05;8.03;;;4.87;;
20076;SDS011;12348;42.710;23.378;2023-04-03T01:02:35;7.03;;;3.90;;
20076;SDS011;12348;42.710;23.378;2023-04-03T01:05:03;8.03;;;4.00;;
20076;SDS011;12348;42.710;23.378;2023-04-03T01:07:31;8.87;;;4.80;;
20076;SDS011;12348;42.710;23.378;2023-04-03T01:10:02;8.47;;;4.33;;
20076;SDS011;12348;42.710;23.378;2023-04-03T01:12:34;6.20;;;4.03;;
20076;SDS011;12348;42.710;23.378;2023-04-03T01:15:03;7.53;;;4.60;;
20076;SDS011;12348;42.710;23.378;2023-04-03T01:17:32;6.93;;;4.23;;
20076;SDS011;12348;42.710;23.378;2023-04-03T01:20:18;5.50;;;4.30;;
20076;SDS011;12348;42.710;23.378;2023-04-03T01:23:13;5.60;;;3.77;;
20076;SDS011;12348;42.710;23.378;2023-04-03T01:25:52;9.33;;;4.63;;
20076;SDS011;12348;42.710;23.378;2023-04-03T01:28:20;9.50;;;4.80;;
20076;SDS011;12348;42.710;23.378;2023-04-03T01:30:50;8.37;;;4.30;;
20076;SDS011;12348;42.710;23.378;2023-04-03T01:33:26;7.37;;;4.50;;
20076;SDS011;12348;42.710;23.378;2023-04-03T01:35:53;6.83;;;3.90;;
20076;SDS011;12348;42.710;23.378;2023-04-03T01:38:20;4.73;;;3.73;;
20076;SDS011;12348;42.710;23.378;2023-04-03T01:40:46;7.07;;;4.33;;
20076;SDS011;12348;42.710;23.378;2023-04-03T01:43:13;8.13;;;4.73;;
20076;SDS011;12348;42.710;23.378;2023-04-03T01:45:40;7.47;;;4.77;;
20076;SDS011;12348;42.710;23.378;2023-04-03T01:48:07;8.73;;;4.40;;
20076;SDS011;12348;42.710;23.378;2023-04-03T01:50:35;8.37;;;3.97;;
20076;SDS011;12348;42.710;23.378;2023-04-03T01:53:02;9.80;;;5.10;;
20076;SDS011;12348;42.710;23.378;2023-04-03T01:55:29;9.90;;;6.00;;
20076;SDS011;12348;42.710;23.378;2023-04-03T01:57:55;13.13;;;5.40;;
20076;SDS011;12348;42.710;23.378;2023-04-03T02:00:22;12.30;;;5.83;;
20076;SDS011;12348;42.710;23.378;2023-04-03T02:02:49;9.17;;;5.90;;
20076;SDS011;12348;42.710;23.378;2023-04-03T02:05:16;9.00;;;4.50;;
20076;SDS011;12348;42.710;23.378;2023-04-03T02:07:45;6.33;;;4.27;;
20076;SDS011;12348;42.710;23.378;2023-04-03T02:10:12;10.37;;;5.13;;
20076;SDS011;12348;42.710;23.378;2023-04-03T02:12:38;7.93;;;4.87;;
20076;SDS011;12348;42.710;23.378;2023-04-03T02:15:06;7.30;;;5.37;;
20076;SDS011;12348;42.710;23.378;2023-04-03T02:17:34;10.33;;;5.17;;
20076;SDS011;12348;42.710;23.378;2023-04-03T02:20:02;11.13;;;5.30;;
20076;SDS011;12348;42.710;23.378;2023-04-03T02:22:29;8.77;;;5.13;;
20076;SDS011;12348;42.710;23.378;2023-04-03T02:24:57;10.13;;;5.17;;
20076;SDS011;12348;42.710;23.378;2023-04-03T02:27:24;15.30;;;6.10;;
20076;SDS011;12348;42.710;23.378;2023-04-03T02:29:51;10.73;;;6.00;;
20076;SDS011;12348;42.710;23.378;2023-04-03T02:32:18;10.37;;;6.13;;
20076;SDS011;12348;42.710;23.378;2023-04-03T02:34:45;9.73;;;6.30;;
20076;SDS011;12348;42.710;23.378;2023-04-03T02:37:12;11.53;;;6.93;;
20076;SDS011;12348;42.710;23.378;2023-04-03T02:39:38;10.97;;;6.80;;
20076;SDS011;12348;42.710;23.378;2023-04-03T02:42:07;16.33;;;7.17;;
20076;SDS011;12348;42.710;23.378;2023-04-03T02:44:33;12.57;;;6.83;;
20076;SDS011;12348;42.710;23.378;2023-04-03T02:47:01;12.90;;;7.77;;
20076;SDS011;12348;42.710;23.378;2023-04-03T02:49:28;16.10;;;7.90;;
20076;SDS011;12348;42.710;23.378;2023-04-03T02:51:55;15.00;;;7.63;;
20076;SDS011;12348;42.710;23.378;2023-04-03T02:54:22;21.33;;;8.50;;
20076;SDS011;12348;42.710;23.378;2023-04-03T02:56:52;20.07;;;9.60;;
20076;SDS011;12348;42.710;23.378;2023-04-03T02:59:21;14.07;;;7.53;;
20076;SDS011;12348;42.710;23.378;2023-04-03T03:01:48;15.77;;;7.40;;
20076;SDS011;12348;42.710;23.378;2023-04-03T03:04:15;13.10;;;8.43;;
20076;SDS011;12348;42.710;23.378;2023-04-03T03:06:42;16.90;;;8.87;;
20076;SDS011;12348;42.710;23.378;2023-04-03T03:09:09;21.43;;;8.83;;
20076;SDS011;12348;42.710;23.378;2023-04-03T03:11:35;13.03;;;7.93;;
20076;SDS011;12348;42.710;23.378;2023-04-03T03:14:02;14.07;;;8.43;;
20076;SDS011;12348;42.710;23.378;2023-04-03T03:16:31;20.23;;;9.43;;
20076;SDS011;12348;42.710;23.378;2023-04-03T03:18:57;22.37;;;8.83;;
20076;SDS011;12348;42.710;23.378;2023-04-03T03:21:24;18.57;;;9.80;;
20076;SDS011;12348;42.710;23.378;2023-04-03T03:23:51;12.70;;;7.33;;
20076;SDS011;12348;42.710;23.378;2023-04-03T03:26:18;15.27;;;7.50;;
20076;SDS011;12348;42.710;23.378;2023-04-03T03:28:45;13.43;;;8.13;;
20076;SDS011;12348;42.710;23.378;2023-04-03T03:31:12;13.63;;;7.27;;
20076;SDS011;12348;42.710;23.378;2023-04-03T03:33:40;13.67;;;7.47;;
20076;SDS011;12348;42.710;23.378;2023-04-03T03:36:07;16.17;;;7.13;;
20076;SDS011;12348;42.710;23.378;2023-04-03T03:38:34;12.63;;;6.90;;
20076;SDS011;12348;42.710;23.378;2023-04-03T03:41:01;13.63;;;7.70;;
20076;SDS011;12348;42.710;23.378;2023-04-03T03:43:27;12.87;;;6.73;;
20076;SDS011;12348;42.710;23.378;2023-04-03T03:45:55;15.13;;;8.53;;
20076;SDS011;12348;42.710;23.378;2023-04-03T03:48:23;19.23;;;8.23;;
20076;SDS011;12348;42.710;23.378;2023-04-03T03:50:53;26.60;;;11.20;;
20076;SDS011;12348;42.710;23.378;2023-04-03T03:53:20;17.27;;;10.07;;
20076;SDS011;12348;42.710;23.378;2023-04-03T03:55:46;22.67;;;9.37;;
20076;SDS011;12348;42.710;23.378;2023-04-03T03:58:13;17.97;;;9.10;;
20076;SDS011;12348;42.710;23.378;2023-04-03T04:00:40;21.97;;;9.80;;
20076;SDS011;12348;42.710;23.378;2023-04-03T04:03:07;10.73;;;7.63;;
20076;SDS011;12348;42.710;23.378;2023-04-03T04:05:33;17.83;;;9.20;;
20076;SDS011;12348;42.710;23.378;2023-04-03T04:08:02;11.93;;;7.07;;
20076;SDS011;12348;42.710;23.378;2023-04-03T04:10:28;20.97;;;9.00;;
20076;SDS011;12348;42.710;23.378;2023-04-03T04:12:55;15.50;;;8.77;;
20076;SDS011;12348;42.710;23.378;2023-04-03T04:15:22;12.57;;;7.97;;
20076;SDS011;12348;42.710;23.378;2023-04-03T04:17:50;23.73;;;10.47;;
20076;SDS011;12348;42.710;23.378;2023-04-03T04:20:18;22.17;;;10.20;;
20076;SDS011;12348;42.710;23.378;2023-04-03T04:22:44;22.40;;;7.90;;
20076;SDS011;12348;42.710;23.378;2023-04-03T04:25:13;12.13;;;7.33;;
20076;SDS011;12348;42.710;23.378;2023-04-03T04:27:40;24.33;;;8.27;;
20076;SDS011;12348;42.710;23.378;2023-04-03T04:30:07;13.23;;;7.37;;
20076;SDS011;12348;42.710;23.378;2023-04-03T04:32:35;18.07;;;7.40;;
20076;SDS011;12348;42.710;23.378;2023-04-03T04:35:02;15.57;;;7.93;;
20076;SDS011;12348;42.710;23.378;2023-04-03T04:37:30;18.17;;;8.30;;
20076;SDS011;12348;42.710;23.378;2023-04-03T04:39:56;17.50;;;10.10;;
20076;SDS011;12348;42.710;23.378;2023-04-03T04:42:24;21.40;;;10.37;;
20076;SDS011;12348;42.710;23.378;2023-04-03T04:44:51;15.30;;;8.83;;
20076;SDS011;12348;42.710;23.378;2023-04-03T04:47:18;15.87;;;8.27;;
20076;SDS011;12348;42.710;23.378;2023-04-03T04:49:45;25.40;;;9.13;;
20076;SDS011;12348;42.710;23.378;2023-04-03T04:52:13;26.37;;;11.37;;
20076;SDS011;12348;42.710;23.378;2023-04-03T04:54:40;26.40;;;12.80;;
20076;SDS011;12348;42.710;23.378;2023-04-03T04:57:07;18.47;;;10.03;;
20076;SDS011;12348;42.710;23.378;2023-04-03T04:59:35;18.40;;;11.10;;
20076;SDS011;12348;42.710;23.378;2023-04-03T05:02:02;26.27;;;12.13;;
20076;SDS011;12348;42.710;23.378;2023-04-03T05:04:28;20.03;;;10.37;;
20076;SDS011;12348;42.710;23.378;2023-04-03T05:06:55;16.07;;;10.10;;
20076;SDS011;12348;42.710;23.378;2023-04-03T05:09:23;19.10;;;11.80;;
20076;SDS011;12348;42.710;23.378;2023-04-03T05:11:50;23.40;;;11.33;;
20076;SDS011;12348;42.710;23.378;2023-04-03T05:14:17;29.30;;;10.90;;
20076;SDS011;12348;42.710;23.378;2023-04-03T05:16:45;24.97;;;10.73;;
20076;SDS011;12348;42.710;23.378;2023-04-03T05:19:12;22.60;;;10.80;;
20076;SDS011;12348;42.710;23.378;2023-04-03T05:21:39;26.63;;;11.20;;
20076;SDS011;12348;42.710;23.378;2023-04-03T05:24:06;20.37;;;10.47;;
20076;SDS011;12348;42.710;23.378;2023-04-03T05:26:34;19.47;;;11.10;;
20076;SDS011;12348;42.710;23.378;2023-04-03T05:29:01;25.63;;;11.20;;
20076;SDS011;12348;42.710;23.378;2023-04-03T05:31:28;25.37;;;13.03;;
20076;SDS011;12348;42.710;23.378;2023-04-03T05:33:56;21.30;;;10.27;;
20076;SDS011;12348;42.710;23.378;2023-04-03T05:36:24;26.37;;;10.90;;
20076;SDS011;12348;42.710;23.378;2023-04-03T05:38:51;14.80;;;9.43;;
20076;SDS011;12348;42.710;23.378;2023-04-03T05:41:18;21.30;;;10.23;;
20076;SDS011;12348;42.710;23.378;2023-04-03T05:43:46;19.63;;;8.90;;
20076;SDS011;12348;42.710;23.378;2023-04-03T05:46:14;14.20;;;9.67;;
20076;SDS011;12348;42.710;23.378;2023-04-03T05:48:43;12.77;;;7.90;;
20076;SDS011;12348;42.710;23.378;2023-04-03T05:51:13;14.80;;;8.43;;
20076;SDS011;12348;42.710;23.378;2023-04-03T05:53:41;17.77;;;7.67;;
20076;SDS011;12348;42.710;23.378;2023-04-03T05:56:10;15.00;;;8.10;;
20076;SDS011;12348;42.710;23.378;2023-04-03T05:58:37;14.87;;;8.17;;
20076;SDS011;12348;42.710;23.378;2023-04-03T06:01:04;14.03;;;7.60;;
20076;SDS011;12348;42.710;23.378;2023-04-03T06:03:31;13.30;;;7.27;;
20076;SDS011;12348;42.710;23.378;2023-04-03T06:05:58;16.10;;;7.67;;
20076;SDS011;12348;42.710;23.378;2023-04-03T06:08:26;12.70;;;7.60;;
20076;SDS011;12348;42.710;23.378;2023-04-03T06:10:53;14.13;;;7.63;;
20076;SDS011;12348;42.710;23.378;2023-04-03T06:13:21;18.33;;;8.43;;
20076;SDS011;12348;42.710;23.378;2023-04-03T06:15:48;11.80;;;7.27;;
20076;SDS011;12348;42.710;23.378;2023-04-03T06:18:15;13.83;;;8.20;;
20076;SDS011;12348;42.710;23.378;2023-04-03T06:20:42;17.17;;;7.80;;
20076;SDS011;12348;42.710;23.378;2023-04-03T06:23:09;9.10;;;6.20;;
20076;SDS011;12348;42.710;23.378;2023-04-03T06:25:37;13.27;;;6.17;;
20076;SDS011;12348;42.710;23.378;2023-04-03T06:28:04;11.73;;;6.93;;
20076;SDS011;12348;42.710;23.378;2023-04-03T06:30:34;8.23;;;6.03;;
20076;SDS011;12348;42.710;23.378;2023-04-03T06:33:01;9.27;;;5.67;;
20076;SDS011;12348;42.710;23.378;2023-04-03T06:35:29;7.53;;;5.63;;
20076;SDS011;12348;42.710;23.378;2023-04-03T06:37:56;9.40;;;5.60;;
20076;SDS011;12348;42.710;23.378;2023-04-03T06:40:23;8.97;;;6.20;;
20076;SDS011;12348;42.710;23.378;2023-04-03T06:42:54;14.33;;;7.27;;
20076;SDS011;12348;42.710;23.378;2023-04-03T06:45:21;22.40;;;8.43;;
20076;SDS011;12348;42.710;23.378;2023-04-03T06:47:49;11.80;;;7.67;;
20076;SDS011;12348;42.710;23.378;2023-04-03T06:50:16;13.50;;;7.73;;
20076;SDS011;12348;42.710;23.378;2023-04-03T06:52:43;17.30;;;8.43;;
20076;SDS011;12348;42.710;23.378;2023-04-03T06:55:10;19.80;;;8.30;;
20076;SDS011;12348;42.710;23.378;2023-04-03T06:57:37;13.37;;;7.73;;
20076;SDS011;12348;42.710;23.378;2023-04-03T07:00:06;17.90;;;9.73;;
20076;SDS011;12348;42.710;23.378;2023-04-03T07:02:35;15.53;;;8.27;;
20076;SDS011;12348;42.710;23.378;2023-04-03T07:05:02;15.03;;;9.10;;
20076;SDS011;12348;42.710;23.378;2023-04-03T07:07:29;13.13;;;8.13;;
20076;SDS011;12348;42.710;23.378;2023-04-03T07:09:56;13.33;;;7.97;;
20076;SDS011;12348;42.710;23.378;2023-04-03T07:12:23;15.43;;;9.17;;
20076;SDS011;12348;42.710;23.378;2023-04-03T07:14:50;18.67;;;9.77;;
20076;SDS011;12348;42.710;23.378;2023-04-03T07:17:18;14.17;;;9.60;;
20076;SDS011;12348;42.710;23.378;2023-04-03T07:19:45;21.17;;;11.97;;
20076;SDS011;12348;42.710;23.378;2023-04-03T07:22:12;21.13;;;11.53;;
20076;SDS011;12348;42.710;23.378;2023-04-03T07:24:39;19.87;;;11.67;;
20076;SDS011;12348;42.710;23.378;2023-04-03T07:27:05;20.00;;;11.07;;
20076;SDS011;12348;42.710;23.378;2023-04-03T07:29:33;21.97;;;10.87;;
20076;SDS011;12348;42.710;23.378;2023-04-03T07:32:00;18.07;;;11.50;;
20076;SDS011;12348;42.710;23.378;2023-04-03T07:34:28;18.30;;;9.50;;
20076;SDS011;12348;42.710;23.378;2023-04-03T07:36:55;15.17;;;8.60;;
20076;SDS011;12348;42.710;23.378;2023-04-03T07:39:22;16.90;;;9.83;;
20076;SDS011;12348;42.710;23.378;2023-04-03T07:41:50;16.63;;;9.77;;
20076;SDS011;12348;42.710;23.378;2023-04-03T07:44:16;17.37;;;9.73;;
20076;SDS011;12348;42.710;23.378;2023-04-03T07:46:43;15.87;;;10.03;;
20076;SDS011;12348;42.710;23.378;2023-04-03T07:49:10;19.60;;;9.97;;
20076;SDS011;12348;42.710;23.378;2023-04-03T07:51:38;15.97;;;9.73;;
20076;SDS011;12348;42.710;23.378;2023-04-03T07:54:05;15.83;;;8.07;;
20076;SDS011;12348;42.710;23.378;2023-04-03T07:56:32;19.57;;;10.03;;
20076;SDS011;12348;42.710;23.378;2023-04-03T07:58:59;19.97;;;9.60;;
20076;SDS011;12348;42.710;23.378;2023-04-03T08:01:26;14.23;;;8.47;;
20076;SDS011;12348;42.710;23.378;2023-04-03T08:03:53;18.17;;;9.37;;
20076;SDS011;12348;42.710;23.378;2023-04-03T08:06:20;12.00;;;8.43;;
20076;SDS011;12348;42.710;23.378;2023-04-03T08:08:48;12.43;;;7.77;;
20076;SDS011;12348;42.710;23.378;2023-04-03T08:11:15;13.27;;;7.23;;
20076;SDS011;12348;42.710;23.378;2023-04-03T08:13:43;14.17;;;8.07;;
20076;SDS011;12348;42.710;23.378;2023-04-03T08:16:11;14.27;;;7.90;;
20076;SDS011;12348;42.710;23.378;2023-04-03T08:18:42;12.57;;;8.33;;
20076;SDS011;12348;42.710;23.378;2023-04-03T08:21:09;15.43;;;7.87;;
20076;SDS011;12348;42.710;23.378;2023-04-03T08:23:37;11.30;;;8.10;;
20076;SDS011;12348;42.710;23.378;2023-04-03T08:26:09;17.37;;;8.30;;
20076;SDS011;12348;42.710;23.378;2023-04-03T08:28:37;12.60;;;7.50;;
20076;SDS011;12348;42.710;23.378;2023-04-03T08:31:19;20.87;;;10.03;;
20076;SDS011;12348;42.710;23.378;2023-04-03T08:33:46;23.10;;;12.63;;
20076;SDS011;12348;42.710;23.378;2023-04-03T08:36:18;19.90;;;11.80;;
20076;SDS011;12348;42.710;23.378;2023-04-03T08:38:46;20.67;;;11.80;;
20076;SDS011;12348;42.710;23.378;2023-04-03T08:41:16;22.53;;;11.83;;
20076;SDS011;12348;42.710;23.378;2023-04-03T08:44:00;19.33;;;12.20;;
20076;SDS011;12348;42.710;23.378;2023-04-03T08:46:40;18.90;;;11.40;;
20076;SDS011;12348;42.710;23.378;2023-04-03T08:49:16;18.13;;;10.80;;
20076;SDS011;12348;42.710;23.378;2023-04-03T08:51:49;18.90;;;10.13;;
20076;SDS011;12348;42.710;23.378;2023-04-03T08:54:20;15.10;;;10.17;;
20076;SDS011;12348;42.710;23.378;2023-04-03T08:56:53;20.97;;;11.60;;
20076;SDS011;12348;42.710;23.378;2023-04-03T08:59:24;25.37;;;14.00;;
20076;SDS011;12348;42.710;23.378;2023-04-03T09:01:55;20.47;;;11.97;;
20076;SDS011;12348;42.710;23.378;2023-04-03T09:04:23;17.47;;;11.77;;
20076;SDS011;12348;42.710;23.378;2023-04-03T09:06:53;25.83;;;10.53;;
20076;SDS011;12348;42.710;23.378;2023-04-03T09:09:27;15.27;;;9.17;;
20076;SDS011;12348;42.710;23.378;2023-04-03T09:12:03;15.67;;;9.83;;
20076;SDS011;12348;42.710;23.378;2023-04-03T09:14:41;18.10;;;10.87;;
20076;SDS011;12348;42.710;23.378;2023-04-03T09:17:14;21.77;;;10.83;;
20076;SDS011;12348;42.710;23.378;2023-04-03T09:19:48;20.53;;;11.00;;
20076;SDS011;12348;42.710;23.378;2023-04-03T09:22:22;17.23;;;9.97;;
20076;SDS011;12348;42.710;23.378;2023-04-03T09:24:53;24.27;;;14.30;;
20076;SDS011;12348;42.710;23.378;2023-04-03T09:27:26;17.10;;;8.93;;
20076;SDS011;12348;42.710;23.378;2023-04-03T09:29:53;12.77;;;9.10;;
20076;SDS011;12348;42.710;23.378;2023-04-03T09:32:25;14.90;;;9.20;;
20076;SDS011;12348;42.710;23.378;2023-04-03T09:34:53;15.20;;;9.47;;
20076;SDS011;12348;42.710;23.378;2023-04-03T09:37:36;20.33;;;10.37;;
20076;SDS011;12348;42.710;23.378;2023-04-03T09:40:05;16.40;;;8.37;;
20076;SDS011;12348;42.710;23.378;2023-04-03T09:42:55;14.40;;;7.70;;
20076;SDS011;12348;42.710;23.378;2023-04-03T09:45:24;11.83;;;7.60;;
20076;SDS011;12348;42.710;23.378;2023-04-03T09:48:03;13.17;;;8.70;;
20076;SDS011;12348;42.710;23.378;2023-04-03T09:50:32;15.37;;;8.23;;
20076;SDS011;12348;42.710;23.378;2023-04-03T09:53:01;16.40;;;8.20;;
20076;SDS011;12348;42.710;23.378;2023-04-03T09:55:33;11.67;;;7.77;;
20076;SDS011;12348;42.710;23.378;2023-04-03T09:58:22;12.83;;;6.90;;
20076;SDS011;12348;42.710;23.378;2023-04-03T10:00:54;14.50;;;8.23;;
20076;SDS011;12348;42.710;23.378;2023-04-03T10:03:24;12.83;;;8.27;;
20076;SDS011;12348;42.710;23.378;2023-04-03T10:05:53;17.27;;;7.77;;
20076;SDS011;12348;42.710;23.378;2023-04-03T10:08:22;19.20;;;9.53;;
20076;SDS011;12348;42.710;23.378;2023-04-03T10:11:10;26.03;;;13.77;;
20076;SDS011;12348;42.710;23.378;2023-04-03T10:13:52;12.23;;;7.27;;
20076;SDS011;12348;42.710;23.378;2023-04-03T10:16:25;16.37;;;7.80;;
20076;SDS011;12348;42.710;23.378;2023-04-03T10:19:10;15.40;;;7.67;;
20076;SDS011;12348;42.710;23.378;2023-04-03T10:21:58;12.27;;;7.20;;
20076;SDS011;12348;42.710;23.378;2023-04-03T10:24:31;13.60;;;7.20;;
20076;SDS011;12348;42.710;23.378;2023-04-03T10:27:09;16.87;;;9.43;;
20076;SDS011;12348;42.710;23.378;2023-04-03T10:29:42;9.93;;;6.60;;
20076;SDS011;12348;42.710;23.378;2023-04-03T10:32:24;12.40;;;6.57;;
20076;SDS011;12348;42.710;23.378;2023-04-03T10:35:00;10.67;;;6.07;;
20076;SDS011;12348;42.710;23.378;2023-04-03T10:37:35;13.50;;;6.60;;
20076;SDS011;12348;42.710;23.378;2023-04-03T10:40:21;11.23;;;6.57;;
20076;SDS011;12348;42.710;23.378;2023-04-03T10:42:58;11.87;;;5.93;;
20076;SDS011;12348;42.710;23.378;2023-04-03T10:45:31;14.37;;;7.20;;
20076;SDS011;12348;42.710;23.378;2023-04-03T10:48:13;10.70;;;6.23;;
20076;SDS011;12348;42.710;23.378;2023-04-03T10:50:47;13.00;;;8.40;;
20076;SDS011;12348;42.710;23.378;2023-04-03T10:53:24;17.93;;;8.73;;
20076;SDS011;12348;42.710;23.378;2023-04-03T10:55:58;14.23;;;8.23;;
20076;SDS011;12348;42.710;23.378;2023-04-03T10:58:36;17.83;;;9.20;;
20076;SDS011;12348;42.710;23.378;2023-04-03T11:01:08;12.43;;;6.53;;
20076;SDS011;12348;42.710;23.378;2023-04-03T11:03:38;17.33;;;7.10;;
20076;SDS011;12348;42.710;23.378;2023-04-03T11:06:09;10.23;;;6.80;;
20076;SDS011;12348;42.710;23.378;2023-04-03T11:08:38;21.03;;;6.50;;
20076;SDS011;12348;42.710;23.378;2023-04-03T11:11:11;8.17;;;4.90;;
20076;SDS011;12348;42.710;23.378;2023-04-03T11:13:43;8.27;;;4.23;;
20076;SDS011;12348;42.710;23.378;2023-04-03T11:16:17;5.77;;;4.43;;
20076;SDS011;12348;42.710;23.378;2023-04-03T11:18:49;10.07;;;4.77;;
20076;SDS011;12348;42.710;23.378;2023-04-03T11:21:21;6.97;;;4.90;;
20076;SDS011;12348;42.710;23.378;2023-04-03T11:23:54;4.90;;;3.43;;
20076;SDS011;12348;42.710;23.378;2023-04-03T11:26:24;5.67;;;3.77;;
20076;SDS011;12348;42.710;23.378;2023-04-03T11:28:58;4.00;;;2.90;;
20076;SDS011;12348;42.710;23.378;2023-04-03T11:31:39;4.77;;;3.23;;
20076;SDS011;12348;42.710;23.378;2023-04-03T11:34:20;8.57;;;4.00;;
20076;SDS011;12348;42.710;23.378;2023-04-03T11:36:53;5.00;;;3.30;;
20076;SDS011;12348;42.710;23.378;2023-04-03T11:39:25;7.40;;;3.87;;
20076;SDS011;12348;42.710;23.378;2023-04-03T11:41:54;12.27;;;5.53;;
20076;SDS011;12348;42.710;23.378;2023-04-03T11:44:27;7.07;;;4.97;;
20076;SDS011;12348;42.710;23.378;2023-04-03T11:47:00;9.97;;;5.00;;
20076;SDS011;12348;42.710;23.378;2023-04-03T11:55:42;6.03;;;3.80;;
20076;SDS011;12348;42.710;23.378;2023-04-03T11:58:22;5.67;;;4.30;;
20076;SDS011;12348;42.710;23.378;2023-04-03T12:00:56;6.47;;;4.67;;
20076;SDS011;12348;42.710;23.378;2023-04-03T12:12:42;6.13;;;4.00;;
20076;SDS011;12348;42.710;23.378;2023-04-03T12:15:19;6.40;;;4.10;;
20076;SDS011;12348;42.710;23.378;2023-04-03T12:17:49;6.63;;;4.63;;
20076;SDS011;12348;42.710;23.378;2023-04-03T12:23:29;5.37;;;4.40;;
20076;SDS011;12348;42.710;23.378;2023-04-03T12:26:03;6.77;;;4.77;;
20076;SDS011;12348;42.710;23.378;2023-04-03T12:28:46;7.87;;;5.30;;
20076;SDS011;12348;42.710;23.378;2023-04-03T12:31:15;6.37;;;4.70;;
20076;SDS011;12348;42.710;23.378;2023-04-03T12:33:47;14.87;;;6.60;;
20076;SDS011;12348;42.710;23.378;2023-04-03T12:36:28;7.10;;;5.00;;
20076;SDS011;12348;42.710;23.378;2023-04-03T12:39:13;4.33;;;3.17;;
20076;SDS011;12348;42.710;23.378;2023-04-03T12:41:55;5.10;;;3.60;;
20076;SDS011;12348;42.710;23.378;2023-04-03T12:47:26;5.33;;;3.93;;
20076;SDS011;12348;42.710;23.378;2023-04-03T12:49:58;7.03;;;3.47;;
20076;SDS011;12348;42.710;23.378;2023-04-03T12:52:33;5.53;;;3.90;;
20076;SDS011;12348;42.710;23.378;2023-04-03T12:55:13;6.20;;;4.07;;
20076;SDS011;12348;42.710;23.378;2023-04-03T12:57:43;10.20;;;4.97;;
20076;SDS011;12348;42.710;23.378;2023-04-03T13:00:30;10.20;;;5.87;;
20076;SDS011;12348;42.710;23.378;2023-04-03T13:02:59;6.57;;;5.33;;
20076;SDS011;12348;42.710;23.378;2023-04-03T13:05:28;7.80;;;5.17;;
20076;SDS011;12348;42.710;23.378;2023-04-03T13:07:58;7.77;;;4.20;;
20076;SDS011;12348;42.710;23.378;2023-04-03T13:10:28;5.23;;;4.17;;
20076;SDS011;12348;42.710;23.378;2023-04-03T13:12:58;10.37;;;5.30;;
20076;SDS011;12348;42.710;23.378;2023-04-03T13:15:39;5.67;;;4.80;;
20076;SDS011;12348;42.710;23.378;2023-04-03T13:18:20;10.50;;;5.17;;
20076;SDS011;12348;42.710;23.378;2023-04-03T13:20:52;8.00;;;4.93;;
20076;SDS011;12348;42.710;23.378;2023-04-03T13:23:26;5.97;;;3.80;;
20076;SDS011;12348;42.710;23.378;2023-04-03T13:25:53;6.13;;;3.43;;
20076;SDS011;12348;42.710;23.378;2023-04-03T13:28:23;0.60;;;0.60;;
20076;SDS011;12348;42.710;23.378;2023-04-03T13:30:55;0.50;;;0.50;;
20076;SDS011;12348;42.710;23.378;2023-04-03T13:33:28;1.53;;;1.43;;
20076;SDS011;12348;42.710;23.378;2023-04-03T13:36:00;0.63;;;0.63;;
20076;SDS011;12348;42.710;23.378;2023-04-03T13:38:31;0.50;;;0.50;;
20076;SDS011;12348;42.710;23.378;2023-04-03T13:40:59;0.50;;;0.50;;
20076;SDS011;12348;42.710;23.378;2023-04-03T13:43:31;0.50;;;0.50;;
20076;SDS011;12348;42.710;23.378;2023-04-03T13:46:01;0.50;;;0.50;;
20076;SDS011;12348;42.710;23.378;2023-04-03T13:48:34;0.57;;;0.57;;
20076;SDS011;12348;42.710;23.378;2023-04-03T13:51:04;1.87;;;1.77;;
20076;SDS011;12348;42.710;23.378;2023-04-03T13:53:33;0.60;;;0.60;;
20076;SDS011;12348;42.710;23.378;2023-04-03T13:56:08;0.70;;;0.70;;
20076;SDS011;12348;42.710;23.378;2023-04-03T13:58:37;0.53;;;0.53;;
20076;SDS011;12348;42.710;23.378;2023-04-03T14:01:10;0.80;;;0.80;;
20076;SDS011;12348;42.710;23.378;2023-04-03T14:03:44;0.70;;;0.70;;
20076;SDS011;12348;42.710;23.378;2023-04-03T14:06:15;0.50;;;0.50;;
20076;SDS011;12348;42.710;23.378;2023-04-03T14:08:45;1.53;;;1.43;;
20076;SDS011;12348;42.710;23.378;2023-04-03T14:11:14;0.50;;;0.50;;
20076;SDS011;12348;42.710;23.378;2023-04-03T14:13:45;0.43;;;0.43;;
20076;SDS011;12348;42.710;23.378;2023-04-03T14:16:13;0.67;;;0.67;;
20076;SDS011;12348;42.710;23.378;2023-04-03T14:18:42;0.60;;;0.60;;
20076;SDS011;12348;42.710;23.378;2023-04-03T14:21:09;0.50;;;0.50;;
20076;SDS011;12348;42.710;23.378;2023-04-03T14:23:39;1.67;;;1.57;;
20076;SDS011;12348;42.710;23.378;2023-04-03T14:26:08;0.60;;;0.60;;
20076;SDS011;12348;42.710;23.378;2023-04-03T14:28:38;0.73;;;0.73;;
20076;SDS011;12348;42.710;23.378;2023-04-03T14:31:07;1.17;;;1.17;;
20076;SDS011;12348;42.710;23.378;2023-04-03T14:33:36;0.90;;;0.90;;
20076;SDS011;12348;42.710;23.378;2023-04-03T14:36:05;0.50;;;0.50;;
20076;SDS011;12348;42.710;23.378;2023-04-03T14:38:39;1.77;;;1.67;;
20076;SDS011;12348;42.710;23.378;2023-04-03T14:41:07;1.00;;;1.00;;
20076;SDS011;12348;42.710;23.378;2023-04-03T14:43:35;0.50;;;0.50;;
20076;SDS011;12348;42.710;23.378;2023-04-03T14:46:03;0.70;;;0.70;;
20076;SDS011;12348;42.710;23.378;2023-04-03T14:48:32;1.63;;;1.57;;
20076;SDS011;12348;42.710;23.378;2023-04-03T14:50:59;0.63;;;0.63;;
20076;SDS011;12348;42.710;23.378;2023-04-03T14:53:26;0.90;;;0.90;;
20076;SDS011;12348;42.710;23.378;2023-04-03T14:55:54;1.43;;;1.33;;
20076;SDS011;12348;42.710;23.378;2023-04-03T14:58:21;2.73;;;1.57;;
20076;SDS011;12348;42.710;23.378;2023-04-03T15:00:48;3.10;;;1.77;;
20076;SDS011;12348;42.710;23.378;2023-04-03T15:03:15;1.33;;;1.33;;